sensor_id;sensor_type;location;lat;lon;timestamp;P1;durP1;ratioP1;P2;durP2;ratioP2
15110;SDS011;7656;51.954;7.998;2023-08-12T00:03:00;8.90;;;5.78;;
15110;SDS011;7656;51.954;7.998;2023-08-12T00:07:22;7.45;;;5.88;;
15110;SDS011;7656;51.954;7.998;2023-08-12T00:11:43;9.23;;;5.78;;
15110;SDS011;7656;51.954;7.998;2023-08-12T00:16:04;7.47;;;6.00;;
15110;SDS011;7656;51.954;7.998;2023-08-12T00:20:25;8.48;;;6.40;;
15110;SDS011;7656;51.954;7.998;2023-08-12T00:24:46;11.25;;;6.30;;
15110;SDS011;7656;51.954;7.998;2023-08-12T00:29:07;9.75;;;6.28;;
15110;SDS011;7656;51.954;7.998;2023-08-12T00:33:29;8.00;;;5.57;;
15110;SDS011;7656;51.954;7.998;2023-08-12T00:37:50;9.18;;;6.30;;
15110;SDS011;7656;51.954;7.998;2023-08-12T00:42:11;7.53;;;6.30;;
15110;SDS011;7656;51.954;7.998;2023-08-12T00:46:32;10.18;;;6.40;;
15110;SDS011;7656;51.954;7.998;2023-08-12T00:50:55;10.95;;;6.88;;
15110;SDS011;7656;51.954;7.998;2023-08-12T00:55:17;7.60;;;6.05;;
15110;SDS011;7656;51.954;7.998;2023-08-12T00:59:38;8.98;;;7.05;;
15110;SDS011;7656;51.954;7.998;2023-08-12T01:04:03;12.35;;;7.55;;
15110;SDS011;7656;51.954;7.998;2023-08-12T01:08:26;9.73;;;7.30;;
15110;SDS011;7656;51.954;7.998;2023-08-12T01:17:43;14.13;;;8.75;;
15110;SDS011;7656;51.954;7.998;2023-08-12T01:22:07;11.32;;;8.35;;
15110;SDS011;7656;51.954;7.998;2023-08-12T01:26:31;12.30;;;7.72;;
15110;SDS011;7656;51.954;7.998;2023-08-12T01:30:57;11.55;;;7.70;;
15110;SDS011;7656;51.954;7.998;2023-08-12T01:35:40;10.05;;;7.47;;
15110;SDS011;7656;51.954;7.998;2023-08-12T01:40:09;11.20;;;7.55;;
15110;SDS011;7656;51.954;7.998;2023-08-12T01:44:32;9.43;;;7.88;;
15110;SDS011;7656;51.954;7.998;2023-08-12T01:48:53;11.23;;;7.25;;
15110;SDS011;7656;51.954;7.998;2023-08-12T01:53:14;9.18;;;7.65;;
15110;SDS011;7656;51.954;7.998;2023-08-12T01:57:36;9.52;;;8.23;;
15110;SDS011;7656;51.954;7.998;2023-08-12T02:01:59;13.27;;;8.40;;
15110;SDS011;7656;51.954;7.998;2023-08-12T02:06:20;9.18;;;8.10;;
15110;SDS011;7656;51.954;7.998;2023-08-12T02:10:41;10.77;;;7.75;;
15110;SDS011;7656;51.954;7.998;2023-08-12T02:15:02;10.20;;;7.82;;
15110;SDS011;7656;51.954;7.998;2023-08-12T02:19:24;9.23;;;7.53;;
15110;SDS011;7656;51.954;7.998;2023-08-12T02:23:45;9.10;;;7.90;;
15110;SDS011;7656;51.954;7.998;2023-08-12T02:28:06;12.43;;;8.13;;
15110;SDS011;7656;51.954;7.998;2023-08-12T02:32:27;8.82;;;7.82;;
15110;SDS011;7656;51.954;7.998;2023-08-12T02:36:48;11.25;;;7.93;;
15110;SDS011;7656;51.954;7.998;2023-08-12T02:41:09;12.45;;;7.43;;
15110;SDS011;7656;51.954;7.998;2023-08-12T02:45:30;12.25;;;8.57;;
15110;SDS011;7656;51.954;7.998;2023-08-12T02:49:52;10.43;;;8.63;;
15110;SDS011;7656;51.954;7.998;2023-08-12T02:54:13;10.13;;;8.32;;
15110;SDS011;7656;51.954;7.998;2023-08-12T02:58:34;9.88;;;8.88;;
15110;SDS011;7656;51.954;7.998;2023-08-12T03:02:55;13.25;;;9.30;;
15110;SDS011;7656;51.954;7.998;2023-08-12T03:07:17;11.93;;;9.70;;
15110;SDS011;7656;51.954;7.998;2023-08-12T03:11:38;13.25;;;9.35;;
15110;SDS011;7656;51.954;7.998;2023-08-12T03:16:02;11.15;;;9.52;;
15110;SDS011;7656;51.954;7.998;2023-08-12T03:20:25;11.93;;;9.82;;
15110;SDS011;7656;51.954;7.998;2023-08-12T03:24:47;13.63;;;10.02;;
15110;SDS011;7656;51.954;7.998;2023-08-12T03:29:09;13.07;;;9.63;;
15110;SDS011;7656;51.954;7.998;2023-08-12T03:33:34;14.35;;;9.85;;
15110;SDS011;7656;51.954;7.998;2023-08-12T03:37:55;12.17;;;10.40;;
15110;SDS011;7656;51.954;7.998;2023-08-12T03:42:17;13.38;;;11.35;;
15110;SDS011;7656;51.954;7.998;2023-08-12T03:46:39;13.43;;;10.02;;
15110;SDS011;7656;51.954;7.998;2023-08-12T03:51:01;12.80;;;10.67;;
15110;SDS011;7656;51.954;7.998;2023-08-12T03:55:22;15.93;;;10.87;;
15110;SDS011;7656;51.954;7.998;2023-08-12T03:59:43;14.57;;;11.13;;
15110;SDS011;7656;51.954;7.998;2023-08-12T04:04:05;14.97;;;10.57;;
15110;SDS011;7656;51.954;7.998;2023-08-12T04:08:26;13.07;;;11.23;;
15110;SDS011;7656;51.954;7.998;2023-08-12T04:12:47;15.27;;;10.87;;
15110;SDS011;7656;51.954;7.998;2023-08-12T04:17:08;13.93;;;11.27;;
15110;SDS011;7656;51.954;7.998;2023-08-12T04:21:29;17.65;;;12.43;;
15110;SDS011;7656;51.954;7.998;2023-08-12T04:25:51;15.25;;;11.10;;
15110;SDS011;7656;51.954;7.998;2023-08-12T04:30:16;18.73;;;12.70;;
15110;SDS011;7656;51.954;7.998;2023-08-12T04:34:39;17.73;;;12.10;;
15110;SDS011;7656;51.954;7.998;2023-08-12T04:39:00;15.13;;;11.68;;
15110;SDS011;7656;51.954;7.998;2023-08-12T04:43:22;14.45;;;11.32;;
15110;SDS011;7656;51.954;7.998;2023-08-12T04:47:43;16.98;;;11.82;;
15110;SDS011;7656;51.954;7.998;2023-08-12T04:52:08;17.83;;;12.07;;
15110;SDS011;7656;51.954;7.998;2023-08-12T04:56:29;19.77;;;11.57;;
15110;SDS011;7656;51.954;7.998;2023-08-12T05:00:51;17.33;;;11.95;;
15110;SDS011;7656;51.954;7.998;2023-08-12T05:05:14;15.07;;;11.63;;
15110;SDS011;7656;51.954;7.998;2023-08-12T05:09:35;17.25;;;11.73;;
15110;SDS011;7656;51.954;7.998;2023-08-12T05:13:56;15.60;;;11.55;;
15110;SDS011;7656;51.954;7.998;2023-08-12T05:18:17;14.07;;;11.32;;
15110;SDS011;7656;51.954;7.998;2023-08-12T05:22:39;13.57;;;11.48;;
15110;SDS011;7656;51.954;7.998;2023-08-12T05:27:00;14.75;;;10.40;;
15110;SDS011;7656;51.954;7.998;2023-08-12T05:31:21;11.63;;;10.00;;
15110;SDS011;7656;51.954;7.998;2023-08-12T05:35:42;14.88;;;9.82;;
15110;SDS011;7656;51.954;7.998;2023-08-12T05:40:03;12.52;;;9.70;;
15110;SDS011;7656;51.954;7.998;2023-08-12T05:44:28;14.95;;;9.95;;
15110;SDS011;7656;51.954;7.998;2023-08-12T05:48:49;16.55;;;10.77;;
15110;SDS011;7656;51.954;7.998;2023-08-12T05:53:10;12.73;;;10.57;;
15110;SDS011;7656;51.954;7.998;2023-08-12T05:57:31;14.57;;;10.13;;
15110;SDS011;7656;51.954;7.998;2023-08-12T06:01:53;13.68;;;9.95;;
15110;SDS011;7656;51.954;7.998;2023-08-12T06:06:14;13.38;;;10.75;;
15110;SDS011;7656;51.954;7.998;2023-08-12T06:10:35;14.13;;;10.35;;
15110;SDS011;7656;51.954;7.998;2023-08-12T06:14:57;14.63;;;10.05;;
15110;SDS011;7656;51.954;7.998;2023-08-12T06:19:18;12.68;;;10.48;;
15110;SDS011;7656;51.954;7.998;2023-08-12T06:23:39;14.35;;;10.10;;
15110;SDS011;7656;51.954;7.998;2023-08-12T06:28:00;12.00;;;10.05;;
15110;SDS011;7656;51.954;7.998;2023-08-12T06:32:22;11.70;;;8.73;;
15110;SDS011;7656;51.954;7.998;2023-08-12T06:36:43;14.25;;;9.10;;
15110;SDS011;7656;51.954;7.998;2023-08-12T06:41:04;12.32;;;9.30;;
15110;SDS011;7656;51.954;7.998;2023-08-12T06:45:25;10.52;;;8.65;;
15110;SDS011;7656;51.954;7.998;2023-08-12T06:49:46;13.48;;;8.98;;
15110;SDS011;7656;51.954;7.998;2023-08-12T06:54:07;10.27;;;8.85;;
15110;SDS011;7656;51.954;7.998;2023-08-12T06:58:28;10.10;;;7.88;;
15110;SDS011;7656;51.954;7.998;2023-08-12T07:02:50;9.75;;;7.95;;
15110;SDS011;7656;51.954;7.998;2023-08-12T07:07:11;8.75;;;7.00;;
15110;SDS011;7656;51.954;7.998;2023-08-12T07:11:32;8.13;;;6.80;;
15110;SDS011;7656;51.954;7.998;2023-08-12T07:15:53;7.47;;;6.35;;
15110;SDS011;7656;51.954;7.998;2023-08-12T07:20:14;8.55;;;5.55;;
15110;SDS011;7656;51.954;7.998;2023-08-12T07:24:35;7.82;;;6.35;;
15110;SDS011;7656;51.954;7.998;2023-08-12T07:28:56;7.68;;;5.82;;
15110;SDS011;7656;51.954;7.998;2023-08-12T07:33:17;8.02;;;6.05;;
15110;SDS011;7656;51.954;7.998;2023-08-12T07:37:40;7.50;;;6.18;;
15110;SDS011;7656;51.954;7.998;2023-08-12T07:42:01;7.32;;;6.63;;
15110;SDS011;7656;51.954;7.998;2023-08-12T07:46:22;8.45;;;7.57;;
15110;SDS011;7656;51.954;7.998;2023-08-12T07:50:43;9.70;;;7.20;;
15110;SDS011;7656;51.954;7.998;2023-08-12T07:55:04;8.77;;;7.72;;
15110;SDS011;7656;51.954;7.998;2023-08-12T07:59:26;9.20;;;8.30;;
15110;SDS011;7656;51.954;7.998;2023-08-12T08:03:47;9.95;;;8.25;;
15110;SDS011;7656;51.954;7.998;2023-08-12T08:08:08;9.63;;;8.18;;
15110;SDS011;7656;51.954;7.998;2023-08-12T08:12:29;9.02;;;8.13;;
15110;SDS011;7656;51.954;7.998;2023-08-12T08:16:50;10.02;;;8.32;;
15110;SDS011;7656;51.954;7.998;2023-08-12T08:21:12;10.10;;;8.15;;
15110;SDS011;7656;51.954;7.998;2023-08-12T08:25:33;9.35;;;7.90;;
15110;SDS011;7656;51.954;7.998;2023-08-12T08:29:54;8.23;;;7.40;;
15110;SDS011;7656;51.954;7.998;2023-08-12T08:34:15;10.57;;;8.02;;
15110;SDS011;7656;51.954;7.998;2023-08-12T08:38:36;9.20;;;7.82;;
15110;SDS011;7656;51.954;7.998;2023-08-12T08:42:59;9.00;;;7.75;;
15110;SDS011;7656;51.954;7.998;2023-08-12T08:47:26;10.27;;;8.07;;
15110;SDS011;7656;51.954;7.998;2023-08-12T08:51:48;9.27;;;8.05;;
15110;SDS011;7656;51.954;7.998;2023-08-12T08:56:11;9.88;;;8.50;;
15110;SDS011;7656;51.954;7.998;2023-08-12T09:00:32;9.73;;;8.18;;
15110;SDS011;7656;51.954;7.998;2023-08-12T09:04:54;9.27;;;7.78;;
15110;SDS011;7656;51.954;7.998;2023-08-12T09:09:16;8.52;;;7.13;;
15110;SDS011;7656;51.954;7.998;2023-08-12T09:13:40;7.45;;;6.57;;
15110;SDS011;7656;51.954;7.998;2023-08-12T09:18:01;7.00;;;6.25;;
15110;SDS011;7656;51.954;7.998;2023-08-12T09:22:26;7.07;;;6.38;;
15110;SDS011;7656;51.954;7.998;2023-08-12T09:26:50;5.22;;;4.57;;
15110;SDS011;7656;51.954;7.998;2023-08-12T09:35:52;3.92;;;3.63;;
15110;SDS011;7656;51.954;7.998;2023-08-12T09:40:17;3.10;;;2.85;;
15110;SDS011;7656;51.954;7.998;2023-08-12T09:44:38;2.80;;;2.60;;
15110;SDS011;7656;51.954;7.998;2023-08-12T09:49:00;4.00;;;3.20;;
15110;SDS011;7656;51.954;7.998;2023-08-12T09:53:22;5.53;;;2.28;;
15110;SDS011;7656;51.954;7.998;2023-08-12T09:57:43;2.22;;;2.13;;
15110;SDS011;7656;51.954;7.998;2023-08-12T10:02:09;2.42;;;2.22;;
15110;SDS011;7656;51.954;7.998;2023-08-12T10:06:38;2.60;;;2.40;;
15110;SDS011;7656;51.954;7.998;2023-08-12T10:11:01;2.55;;;2.25;;
15110;SDS011;7656;51.954;7.998;2023-08-12T10:15:22;3.35;;;2.13;;
15110;SDS011;7656;51.954;7.998;2023-08-12T10:19:44;3.13;;;2.45;;
15110;SDS011;7656;51.954;7.998;2023-08-12T10:24:05;1.92;;;1.83;;
15110;SDS011;7656;51.954;7.998;2023-08-12T10:28:29;2.70;;;1.88;;
15110;SDS011;7656;51.954;7.998;2023-08-12T10:32:52;1.80;;;1.70;;
15110;SDS011;7656;51.954;7.998;2023-08-12T10:37:13;2.17;;;1.83;;
15110;SDS011;7656;51.954;7.998;2023-08-12T10:41:35;4.47;;;2.22;;
15110;SDS011;7656;51.954;7.998;2023-08-12T10:45:57;2.20;;;2.00;;
15110;SDS011;7656;51.954;7.998;2023-08-12T10:50:22;2.17;;;1.92;;
15110;SDS011;7656;51.954;7.998;2023-08-12T10:54:46;2.80;;;1.90;;
15110;SDS011;7656;51.954;7.998;2023-08-12T10:59:07;1.90;;;1.80;;
15110;SDS011;7656;51.954;7.998;2023-08-12T11:03:31;4.80;;;2.03;;
15110;SDS011;7656;51.954;7.998;2023-08-12T11:08:00;1.98;;;1.88;;
15110;SDS011;7656;51.954;7.998;2023-08-12T11:12:30;1.90;;;1.80;;
15110;SDS011;7656;51.954;7.998;2023-08-12T11:16:54;3.00;;;1.65;;
15110;SDS011;7656;51.954;7.998;2023-08-12T11:21:15;2.38;;;2.00;;
15110;SDS011;7656;51.954;7.998;2023-08-12T11:25:37;2.08;;;1.92;;
15110;SDS011;7656;51.954;7.998;2023-08-12T11:29:59;3.60;;;2.70;;
15110;SDS011;7656;51.954;7.998;2023-08-12T11:34:20;2.00;;;1.90;;
15110;SDS011;7656;51.954;7.998;2023-08-12T11:38:42;2.20;;;2.00;;
15110;SDS011;7656;51.954;7.998;2023-08-12T11:43:03;2.25;;;2.05;;
15110;SDS011;7656;51.954;7.998;2023-08-12T11:47:24;2.15;;;2.05;;
15110;SDS011;7656;51.954;7.998;2023-08-12T11:51:46;2.42;;;2.28;;
15110;SDS011;7656;51.954;7.998;2023-08-12T11:56:11;2.08;;;1.98;;
15110;SDS011;7656;51.954;7.998;2023-08-12T12:00:32;1.95;;;1.80;;
15110;SDS011;7656;51.954;7.998;2023-08-12T12:04:54;1.95;;;1.90;;
15110;SDS011;7656;51.954;7.998;2023-08-12T12:09:15;3.65;;;2.47;;
15110;SDS011;7656;51.954;7.998;2023-08-12T12:13:39;2.05;;;1.95;;
15110;SDS011;7656;51.954;7.998;2023-08-12T12:18:00;2.13;;;2.00;;
15110;SDS011;7656;51.954;7.998;2023-08-12T12:22:25;2.60;;;2.40;;
15110;SDS011;7656;51.954;7.998;2023-08-12T12:26:51;2.63;;;2.42;;
15110;SDS011;7656;51.954;7.998;2023-08-12T12:31:12;3.53;;;3.10;;
15110;SDS011;7656;51.954;7.998;2023-08-12T12:35:33;3.00;;;2.80;;
15110;SDS011;7656;51.954;7.998;2023-08-12T12:39:54;3.63;;;3.22;;
15110;SDS011;7656;51.954;7.998;2023-08-12T12:44:15;4.40;;;3.42;;
15110;SDS011;7656;51.954;7.998;2023-08-12T12:48:36;3.72;;;3.42;;
15110;SDS011;7656;51.954;7.998;2023-08-12T12:52:57;4.13;;;3.72;;
15110;SDS011;7656;51.954;7.998;2023-08-12T12:57:18;3.83;;;3.53;;
15110;SDS011;7656;51.954;7.998;2023-08-12T13:01:40;4.18;;;3.75;;
15110;SDS011;7656;51.954;7.998;2023-08-12T13:06:01;4.57;;;4.18;;
15110;SDS011;7656;51.954;7.998;2023-08-12T13:10:23;4.53;;;3.97;;
15110;SDS011;7656;51.954;7.998;2023-08-12T13:14:44;4.25;;;3.83;;
15110;SDS011;7656;51.954;7.998;2023-08-12T13:19:05;4.32;;;3.92;;
15110;SDS011;7656;51.954;7.998;2023-08-12T13:23:26;4.75;;;4.35;;
15110;SDS011;7656;51.954;7.998;2023-08-12T13:27:47;4.45;;;4.07;;
15110;SDS011;7656;51.954;7.998;2023-08-12T13:32:08;3.65;;;3.35;;
15110;SDS011;7656;51.954;7.998;2023-08-12T13:36:29;4.00;;;3.70;;
15110;SDS011;7656;51.954;7.998;2023-08-12T13:40:51;3.28;;;3.08;;
15110;SDS011;7656;51.954;7.998;2023-08-12T13:45:12;3.35;;;2.72;;
15110;SDS011;7656;51.954;7.998;2023-08-12T13:49:33;3.17;;;2.90;;
15110;SDS011;7656;51.954;7.998;2023-08-12T13:53:54;3.25;;;3.05;;
15110;SDS011;7656;51.954;7.998;2023-08-12T13:58:15;3.05;;;2.85;;
15110;SDS011;7656;51.954;7.998;2023-08-12T14:02:36;3.60;;;3.30;;
15110;SDS011;7656;51.954;7.998;2023-08-12T14:06:58;3.00;;;2.80;;
15110;SDS011;7656;51.954;7.998;2023-08-12T14:11:19;2.75;;;2.55;;
15110;SDS011;7656;51.954;7.998;2023-08-12T14:15:41;2.58;;;2.47;;
15110;SDS011;7656;51.954;7.998;2023-08-12T14:20:02;3.03;;;2.83;;
15110;SDS011;7656;51.954;7.998;2023-08-12T14:24:28;3.00;;;2.80;;
15110;SDS011;7656;51.954;7.998;2023-08-12T14:28:49;2.85;;;2.65;;
15110;SDS011;7656;51.954;7.998;2023-08-12T14:33:10;2.47;;;2.38;;
15110;SDS011;7656;51.954;7.998;2023-08-12T14:37:31;2.90;;;2.70;;
15110;SDS011;7656;51.954;7.998;2023-08-12T14:41:52;3.88;;;2.17;;
15110;SDS011;7656;51.954;7.998;2023-08-12T14:46:13;2.35;;;2.25;;
15110;SDS011;7656;51.954;7.998;2023-08-12T14:50:34;2.70;;;2.50;;
15110;SDS011;7656;51.954;7.998;2023-08-12T14:59:23;2.83;;;2.63;;
15110;SDS011;7656;51.954;7.998;2023-08-12T15:03:44;2.72;;;2.53;;
15110;SDS011;7656;51.954;7.998;2023-08-12T15:08:05;3.15;;;2.88;;
15110;SDS011;7656;51.954;7.998;2023-08-12T15:12:27;3.60;;;3.30;;
15110;SDS011;7656;51.954;7.998;2023-08-12T15:16:48;4.15;;;3.10;;
15110;SDS011;7656;51.954;7.998;2023-08-12T15:21:09;2.45;;;2.25;;
15110;SDS011;7656;51.954;7.998;2023-08-12T15:25:30;6.22;;;2.00;;
15110;SDS011;7656;51.954;7.998;2023-08-12T15:29:52;3.40;;;1.20;;
15110;SDS011;7656;51.954;7.998;2023-08-12T15:34:13;1.30;;;1.20;;
15110;SDS011;7656;51.954;7.998;2023-08-12T15:38:34;1.42;;;1.35;;
15110;SDS011;7656;51.954;7.998;2023-08-12T15:42:55;2.33;;;1.45;;
15110;SDS011;7656;51.954;7.998;2023-08-12T15:47:17;1.73;;;1.38;;
15110;SDS011;7656;51.954;7.998;2023-08-12T15:51:38;1.58;;;1.27;;
15110;SDS011;7656;51.954;7.998;2023-08-12T15:56:00;1.38;;;1.27;;
15110;SDS011;7656;51.954;7.998;2023-08-12T16:00:21;1.23;;;1.13;;
15110;SDS011;7656;51.954;7.998;2023-08-12T16:04:43;1.40;;;1.30;;
15110;SDS011;7656;51.954;7.998;2023-08-12T16:09:04;1.40;;;1.20;;
15110;SDS011;7656;51.954;7.998;2023-08-12T16:13:25;3.00;;;1.60;;
15110;SDS011;7656;51.954;7.998;2023-08-12T16:17:46;1.50;;;1.45;;
15110;SDS011;7656;51.954;7.998;2023-08-12T16:22:07;1.95;;;1.85;;
15110;SDS011;7656;51.954;7.998;2023-08-12T16:26:28;1.80;;;1.70;;
15110;SDS011;7656;51.954;7.998;2023-08-12T16:30:50;1.88;;;1.77;;
15110;SDS011;7656;51.954;7.998;2023-08-12T16:35:12;1.90;;;1.80;;
15110;SDS011;7656;51.954;7.998;2023-08-12T16:39:33;1.60;;;1.50;;
15110;SDS011;7656;51.954;7.998;2023-08-12T16:43:54;2.75;;;1.70;;
15110;SDS011;7656;51.954;7.998;2023-08-12T16:48:15;2.25;;;2.10;;
15110;SDS011;7656;51.954;7.998;2023-08-12T16:52:36;3.08;;;1.80;;
15110;SDS011;7656;51.954;7.998;2023-08-12T16:56:58;3.47;;;1.70;;
15110;SDS011;7656;51.954;7.998;2023-08-12T17:01:19;3.05;;;1.90;;
15110;SDS011;7656;51.954;7.998;2023-08-12T17:05:41;1.63;;;1.52;;
15110;SDS011;7656;51.954;7.998;2023-08-12T17:10:02;1.70;;;1.55;;
15110;SDS011;7656;51.954;7.998;2023-08-12T17:14:24;2.92;;;1.88;;
15110;SDS011;7656;51.954;7.998;2023-08-12T17:18:45;1.92;;;1.55;;
15110;SDS011;7656;51.954;7.998;2023-08-12T17:23:06;2.85;;;1.10;;
15110;SDS011;7656;51.954;7.998;2023-08-12T17:27:27;1.40;;;1.30;;
15110;SDS011;7656;51.954;7.998;2023-08-12T17:31:48;0.98;;;0.98;;
15110;SDS011;7656;51.954;7.998;2023-08-12T17:36:10;2.25;;;1.45;;
15110;SDS011;7656;51.954;7.998;2023-08-12T17:40:31;1.63;;;1.40;;
15110;SDS011;7656;51.954;7.998;2023-08-12T17:44:52;4.57;;;2.10;;
15110;SDS011;7656;51.954;7.998;2023-08-12T17:49:13;2.15;;;1.95;;
15110;SDS011;7656;51.954;7.998;2023-08-12T17:53:34;3.20;;;1.80;;
15110;SDS011;7656;51.954;7.998;2023-08-12T17:57:55;1.42;;;1.20;;
15110;SDS011;7656;51.954;7.998;2023-08-12T18:02:16;2.58;;;1.30;;
15110;SDS011;7656;51.954;7.998;2023-08-12T18:06:37;3.88;;;1.58;;
15110;SDS011;7656;51.954;7.998;2023-08-12T18:10:59;1.50;;;1.40;;
15110;SDS011;7656;51.954;7.998;2023-08-12T18:15:22;1.90;;;1.40;;
15110;SDS011;7656;51.954;7.998;2023-08-12T18:19:44;1.95;;;1.65;;
15110;SDS011;7656;51.954;7.998;2023-08-12T18:24:05;2.13;;;1.70;;
15110;SDS011;7656;51.954;7.998;2023-08-12T18:28:26;2.60;;;1.70;;
15110;SDS011;7656;51.954;7.998;2023-08-12T18:32:47;3.97;;;1.85;;
15110;SDS011;7656;51.954;7.998;2023-08-12T18:37:08;2.28;;;2.10;;
15110;SDS011;7656;51.954;7.998;2023-08-12T18:41:30;2.42;;;1.80;;
15110;SDS011;7656;51.954;7.998;2023-08-12T18:45:52;3.65;;;2.00;;
15110;SDS011;7656;51.954;7.998;2023-08-12T18:50:13;2.17;;;2.00;;
15110;SDS011;7656;51.954;7.998;2023-08-12T18:54:34;3.47;;;2.00;;
15110;SDS011;7656;51.954;7.998;2023-08-12T18:58:56;1.50;;;1.40;;
15110;SDS011;7656;51.954;7.998;2023-08-12T19:03:17;2.88;;;1.63;;
15110;SDS011;7656;51.954;7.998;2023-08-12T19:07:38;2.75;;;1.80;;
15110;SDS011;7656;51.954;7.998;2023-08-12T19:11:59;6.90;;;2.22;;
15110;SDS011;7656;51.954;7.998;2023-08-12T19:16:22;3.10;;;2.13;;
15110;SDS011;7656;51.954;7.998;2023-08-12T19:20:43;3.85;;;2.00;;
15110;SDS011;7656;51.954;7.998;2023-08-12T19:25:04;5.97;;;1.63;;
15110;SDS011;7656;51.954;7.998;2023-08-12T19:29:25;4.28;;;1.67;;
15110;SDS011;7656;51.954;7.998;2023-08-12T19:33:46;2.00;;;1.73;;
15110;SDS011;7656;51.954;7.998;2023-08-12T19:38:12;7.55;;;2.85;;
15110;SDS011;7656;51.954;7.998;2023-08-12T19:42:34;3.90;;;2.30;;
15110;SDS011;7656;51.954;7.998;2023-08-12T19:46:55;4.10;;;2.10;;
15110;SDS011;7656;51.954;7.998;2023-08-12T19:51:16;2.38;;;1.70;;
15110;SDS011;7656;51.954;7.998;2023-08-12T19:55:37;2.83;;;2.37;;
15110;SDS011;7656;51.954;7.998;2023-08-12T19:59:58;12.63;;;6.30;;
15110;SDS011;7656;51.954;7.998;2023-08-12T20:04:20;19.53;;;11.37;;
15110;SDS011;7656;51.954;7.998;2023-08-12T20:08:41;3.40;;;2.63;;
15110;SDS011;7656;51.954;7.998;2023-08-12T20:13:02;3.27;;;2.63;;
15110;SDS011;7656;51.954;7.998;2023-08-12T20:17:23;5.27;;;2.13;;
15110;SDS011;7656;51.954;7.998;2023-08-12T20:21:44;2.50;;;2.17;;
15110;SDS011;7656;51.954;7.998;2023-08-12T20:26:06;3.23;;;2.33;;
15110;SDS011;7656;51.954;7.998;2023-08-12T20:30:27;3.57;;;2.40;;
15110;SDS011;7656;51.954;7.998;2023-08-12T20:34:48;2.83;;;2.03;;
15110;SDS011;7656;51.954;7.998;2023-08-12T20:39:09;3.43;;;2.40;;
15110;SDS011;7656;51.954;7.998;2023-08-12T20:43:31;5.90;;;2.60;;
15110;SDS011;7656;51.954;7.998;2023-08-12T20:47:52;4.63;;;2.90;;
15110;SDS011;7656;51.954;7.998;2023-08-12T20:52:13;2.93;;;2.27;;
15110;SDS011;7656;51.954;7.998;2023-08-12T20:56:34;4.10;;;2.57;;
15110;SDS011;7656;51.954;7.998;2023-08-12T21:00:55;6.93;;;2.80;;
15110;SDS011;7656;51.954;7.998;2023-08-12T21:05:16;2.97;;;2.23;;
15110;SDS011;7656;51.954;7.998;2023-08-12T21:09:38;9.40;;;5.23;;
15110;SDS011;7656;51.954;7.998;2023-08-12T21:13:59;7.37;;;4.60;;
15110;SDS011;7656;51.954;7.998;2023-08-12T21:18:20;7.10;;;5.03;;
15110;SDS011;7656;51.954;7.998;2023-08-12T21:22:42;5.63;;;4.27;;
15110;SDS011;7656;51.954;7.998;2023-08-12T21:27:05;7.60;;;3.87;;
15110;SDS011;7656;51.954;7.998;2023-08-12T21:31:26;5.83;;;3.20;;
15110;SDS011;7656;51.954;7.998;2023-08-12T21:35:47;5.97;;;2.80;;
15110;SDS011;7656;51.954;7.998;2023-08-12T21:40:09;4.90;;;2.87;;
15110;SDS011;7656;51.954;7.998;2023-08-12T21:44:31;5.63;;;2.83;;
15110;SDS011;7656;51.954;7.998;2023-08-12T21:48:52;2.83;;;2.13;;
15110;SDS011;7656;51.954;7.998;2023-08-12T21:53:13;4.57;;;2.37;;
15110;SDS011;7656;51.954;7.998;2023-08-12T21:57:34;6.37;;;2.70;;
15110;SDS011;7656;51.954;7.998;2023-08-12T22:01:55;3.38;;;2.40;;
15110;SDS011;7656;51.954;7.998;2023-08-12T22:06:16;4.87;;;2.60;;
15110;SDS011;7656;51.954;7.998;2023-08-12T22:10:38;3.83;;;2.23;;
15110;SDS011;7656;51.954;7.998;2023-08-12T22:14:59;8.57;;;2.53;;
15110;SDS011;7656;51.954;7.998;2023-08-12T22:19:20;4.63;;;2.23;;
15110;SDS011;7656;51.954;7.998;2023-08-12T22:23:41;4.27;;;2.40;;
15110;SDS011;7656;51.954;7.998;2023-08-12T22:28:02;4.53;;;2.63;;
15110;SDS011;7656;51.954;7.998;2023-08-12T22:32:24;4.10;;;2.27;;
15110;SDS011;7656;51.954;7.998;2023-08-12T22:36:45;12.13;;;2.93;;
15110;SDS011;7656;51.954;7.998;2023-08-12T22:41:06;4.03;;;2.53;;
15110;SDS011;7656;51.954;7.998;2023-08-12T22:45:27;5.47;;;2.60;;
15110;SDS011;7656;51.954;7.998;2023-08-12T22:49:48;5.50;;;2.97;;
15110;SDS011;7656;51.954;7.998;2023-08-12T22:54:10;4.30;;;2.43;;
15110;SDS011;7656;51.954;7.998;2023-08-12T22:58:31;6.23;;;2.60;;
15110;SDS011;7656;51.954;7.998;2023-08-12T23:02:52;8.37;;;2.80;;
15110;SDS011;7656;51.954;7.998;2023-08-12T23:07:13;4.07;;;2.60;;
15110;SDS011;7656;51.954;7.998;2023-08-12T23:11:34;7.03;;;3.27;;
15110;SDS011;7656;51.954;7.998;2023-08-12T23:15:55;3.93;;;2.83;;
15110;SDS011;7656;51.954;7.998;2023-08-12T23:20:16;3.47;;;2.77;;
15110;SDS011;7656;51.954;7.998;2023-08-12T23:24:38;4.10;;;2.73;;
15110;SDS011;7656;51.954;7.998;2023-08-12T23:28:59;6.13;;;2.93;;
15110;SDS011;7656;51.954;7.998;2023-08-12T23:33:20;5.10;;;3.27;;
15110;SDS011;7656;51.954;7.998;2023-08-12T23:37:41;5.90;;;2.80;;
15110;SDS011;7656;51.954;7.998;2023-08-12T23:42:02;5.83;;;3.47;;
15110;SDS011;7656;51.954;7.998;2023-08-12T23:46:24;5.47;;;3.30;;
15110;SDS011;7656;51.954;7.998;2023-08-12T23:50:45;7.23;;;2.90;;
15110;SDS011;7656;51.954;7.998;2023-08-12T23:55:06;3.57;;;3.27;;
15110;SDS011;7656;51.954;7.998;2023-08-12T23:59:27;3.70;;;2.93;;
